Time;durP1;ratioP1;P1;durP2;ratioP2;P2;SDS_P1;SDS_P2;PMS_P1;PMS_P2;Temp;Humidity;BMP_temperature;BMP_pressure;BME280_temperature;BME280_humidity;BME280_pressure;Samples;Min_cycle;Max_cycle;Signal;HPM_P1;HPM_P2
2024/01/12 00:01:14;;;;;;;;;;;1.60;99.90;;;;;;5074701;28;19939;-64
2024/01/12 00:03:40;;;;;;;;;;;1.60;99.90;;;;;;5065342;28;19953;-64
2024/01/12 00:06:06;;;;;;;;;;;1.70;99.90;;;;;;5071216;28;19930;-64
2024/01/12 00:08:32;;;;;;;;;;;1.70;99.90;;;;;;5048358;28;19924;-65
2024/01/12 00:10:58;;;;;;;;;;;1.70;99.90;;;;;;5067460;28;19928;-64
2024/01/12 00:13:24;;;;;;;;;;;1.70;99.90;;;;;;5048520;28;20488;-64
2024/01/12 00:15:49;;;;;;;;;;;1.60;99.90;;;;;;5066643;28;20295;-63
2024/01/12 00:18:15;;;;;;;;;;;1.70;99.90;;;;;;5062631;28;20031;-64
2024/01/12 00:20:43;;;;;;;;;;;1.70;99.90;;;;;;5063489;28;19955;-64
2024/01/12 00:23:09;;;;;;;;;;;1.60;99.90;;;;;;5053574;28;20386;-64
2024/01/12 00:25:35;;;;;;;;;;;1.70;99.90;;;;;;5074165;28;19928;-63
2024/01/12 00:28:00;;;;;;;;;;;1.70;99.90;;;;;;5055146;28;19974;-64
2024/01/12 00:30:28;;;;;;;;;;;1.70;99.90;;;;;;5050283;28;19928;-65
2024/01/12 00:32:54;;;;;;;;;;;1.70;99.90;;;;;;5064384;28;20290;-63
2024/01/12 00:35:19;;;;;;;;;;;1.80;99.90;;;;;;5051790;28;19924;-64
2024/01/12 00:37:48;;;;;;;;;;;1.80;99.90;;;;;;5083447;28;20378;-64
2024/01/12 00:40:14;;;;;;;;;;;1.80;99.90;;;;;;5082893;28;20268;-64
2024/01/12 00:42:39;;;;;;;;;;;1.80;99.90;;;;;;5062757;28;19982;-64
2024/01/12 00:45:05;;;;;;;;;;;1.80;99.90;;;;;;5081857;28;20104;-64
2024/01/12 00:47:31;;;;;;;;;;;1.80;99.90;;;;;;5059282;28;19928;-63
2024/01/12 00:49:56;;;;;;;;;;;1.80;99.90;;;;;;5078653;28;19977;-63
2024/01/12 00:52:22;;;;;;;;;;;1.80;99.90;;;;;;5047978;28;20434;-64
2024/01/12 00:54:47;;;;;;;;;;;1.80;99.90;;;;;;5063349;28;20793;-64
2024/01/12 00:57:13;;;;;;;;;;;1.90;99.90;;;;;;5060363;28;19931;-63
2024/01/12 00:59:39;;;;;;;;;;;1.90;99.90;;;;;;5062128;28;19951;-64
2024/01/12 01:02:04;;;;;;;;;;;1.80;99.90;;;;;;5042606;28;19927;-64
2024/01/12 01:04:30;;;;;;;;;;;1.80;99.90;;;;;;5050221;28;20424;-63
2024/01/12 01:06:55;;;;;;;;;;;1.80;99.90;;;;;;5059169;28;19991;-64
2024/01/12 01:09:21;;;;;;;;;;;1.90;99.90;;;;;;5060903;28;19924;-63
2024/01/12 01:11:48;;;;;;;;;;;1.80;99.90;;;;;;5048645;28;19963;-63
2024/01/12 01:14:13;;;;;;;;;;;1.80;99.90;;;;;;5053859;28;20328;-64
2024/01/12 01:16:39;;;;;;;;;;;1.80;99.90;;;;;;5043108;28;19955;-64
2024/01/12 01:19:04;;;;;;;;;;;1.80;99.90;;;;;;5046872;28;19924;-63
2024/01/12 01:21:30;;;;;;;;;;;1.80;99.90;;;;;;5049590;28;19935;-64
2024/01/12 01:23:56;;;;;;;;;;;1.70;99.90;;;;;;5050959;28;19942;-65
2024/01/12 01:26:21;;;;;;;;;;;1.70;99.90;;;;;;5039534;28;19920;-63
2024/01/12 01:28:47;;;;;;;;;;;1.70;99.90;;;;;;5033060;28;20033;-65
2024/01/12 01:31:12;;;;;;;;;;;1.70;99.90;;;;;;5048468;28;20414;-64
2024/01/12 01:33:38;;;;;;;;;;;1.70;99.90;;;;;;5051711;28;19967;-65
2024/01/12 01:36:04;;;;;;;;;;;1.70;99.90;;;;;;5064786;28;19924;-64
2024/01/12 01:38:29;;;;;;;;;;;1.70;99.90;;;;;;5072581;28;20359;-65
2024/01/12 01:40:55;;;;;;;;;;;1.70;99.90;;;;;;5056958;28;19928;-64
2024/01/12 01:43:21;;;;;;;;;;;1.70;99.90;;;;;;5047635;28;19930;-65
2024/01/12 01:45:47;;;;;;;;;;;1.70;99.90;;;;;;5076977;27;19990;-64
2024/01/12 01:48:13;;;;;;;;;;;1.60;99.90;;;;;;5069439;27;19924;-64
2024/01/12 01:50:39;;;;;;;;;;;1.60;99.90;;;;;;5077792;27;19928;-64
2024/01/12 01:53:05;;;;;;;;;;;1.60;99.90;;;;;;5078228;27;19954;-63
2024/01/12 01:55:30;;;;;;;;;;;1.60;99.90;;;;;;5079347;27;19928;-65
2024/01/12 01:57:57;;;;;;;;;;;1.60;99.90;;;;;;5074192;28;19988;-63
2024/01/12 02:00:22;;;;;;;;;;;1.60;99.90;;;;;;5085104;27;19927;-64
2024/01/12 02:02:48;;;;;;;;;;;1.60;99.90;;;;;;5074705;27;19927;-64
2024/01/12 02:05:14;;;;;;;;;;;1.60;99.90;;;;;;5075648;27;20275;-65
2024/01/12 02:07:40;;;;;;;;;;;1.60;99.90;;;;;;5070219;27;19923;-64
2024/01/12 02:10:06;;;;;;;;;;;1.50;99.90;;;;;;5078226;28;21506;-65
2024/01/12 02:12:35;;;;;;;;;;;1.60;99.90;;;;;;5090632;27;19928;-63
2024/01/12 02:15:01;;;;;;;;;;;1.60;99.90;;;;;;5101291;27;19923;-64
2024/01/12 02:17:27;;;;;;;;;;;1.60;99.90;;;;;;5076230;27;19947;-64
2024/01/12 02:19:56;;;;;;;;;;;1.60;99.90;;;;;;5073149;27;19924;-64
2024/01/12 02:22:22;;;;;;;;;;;1.60;99.90;;;;;;5084384;27;20449;-64
2024/01/12 02:24:48;;;;;;;;;;;1.60;99.90;;;;;;5100304;27;19927;-64
2024/01/12 02:27:13;;;;;;;;;;;1.50;99.90;;;;;;5083976;27;19946;-63
2024/01/12 02:29:39;;;;;;;;;;;1.50;99.90;;;;;;5080762;28;19919;-64
2024/01/12 02:32:04;;;;;;;;;;;1.50;99.90;;;;;;5082152;28;19928;-65
2024/01/12 02:34:30;;;;;;;;;;;1.40;99.90;;;;;;5090545;27;19923;-65
2024/01/12 02:36:56;;;;;;;;;;;1.40;99.90;;;;;;5076041;27;20114;-65
2024/01/12 02:39:21;;;;;;;;;;;1.40;99.90;;;;;;5065032;27;19954;-64
2024/01/12 02:41:47;;;;;;;;;;;1.40;99.90;;;;;;5071166;28;20018;-65
2024/01/12 02:44:12;;;;;;;;;;;1.30;99.90;;;;;;5085234;28;19926;-65
2024/01/12 02:46:38;;;;;;;;;;;1.30;99.90;;;;;;5070973;27;20564;-65
2024/01/12 02:49:04;;;;;;;;;;;1.20;99.90;;;;;;5080021;28;19995;-65
2024/01/12 02:51:30;;;;;;;;;;;1.20;99.90;;;;;;5076158;28;19931;-65
2024/01/12 02:53:55;;;;;;;;;;;1.20;99.90;;;;;;5072801;27;20560;-63
2024/01/12 02:56:21;;;;;;;;;;;1.10;99.90;;;;;;5066318;28;20266;-64
2024/01/12 02:58:47;;;;;;;;;;;1.20;99.90;;;;;;5074678;28;19923;-63
2024/01/12 03:01:13;;;;;;;;;;;1.20;99.90;;;;;;5054337;28;19924;-64
2024/01/12 03:03:38;;;;;;;;;;;1.10;99.90;;;;;;5076590;27;20052;-64
2024/01/12 03:06:05;;;;;;;;;;;1.10;99.90;;;;;;5078395;27;20404;-64
2024/01/12 03:08:31;;;;;;;;;;;1.10;99.90;;;;;;5082620;27;21484;-65
2024/01/12 03:10:56;;;;;;;;;;;1.20;99.90;;;;;;5077143;27;19964;-65
2024/01/12 03:13:22;;;;;;;;;;;1.10;99.90;;;;;;5053823;27;20279;-65
2024/01/12 03:15:47;;;;;;;;;;;1.10;99.90;;;;;;5078703;27;19936;-65
2024/01/12 03:18:14;;;;;;;;;;;1.10;99.90;;;;;;5079093;27;20457;-64
2024/01/12 03:20:39;;;;;;;;;;;1.10;99.90;;;;;;5089018;27;19924;-64
2024/01/12 03:23:05;;;;;;;;;;;1.10;99.90;;;;;;5083334;27;19977;-65
2024/01/12 03:25:31;;;;;;;;;;;1.10;99.90;;;;;;5085048;27;20270;-64
2024/01/12 03:27:58;;;;;;;;;;;1.10;99.90;;;;;;5080950;27;20482;-64
2024/01/12 03:30:23;;;;;;;;;;;1.10;99.90;;;;;;5077148;27;19931;-65
2024/01/12 03:32:49;;;;;;;;;;;1.10;99.90;;;;;;5079235;27;19934;-65
2024/01/12 03:35:15;;;;;;;;;;;1.10;99.90;;;;;;5046308;27;23172;-65
2024/01/12 03:37:40;;;;;;;;;;;1.10;99.90;;;;;;5079097;27;19924;-64
2024/01/12 03:40:06;;;;;;;;;;;1.20;99.90;;;;;;5080926;27;20002;-65
2024/01/12 03:42:32;;;;;;;;;;;1.10;99.90;;;;;;5076641;27;20014;-63
2024/01/12 03:44:57;;;;;;;;;;;1.20;99.90;;;;;;5078459;27;19934;-65
2024/01/12 03:47:23;;;;;;;;;;;1.20;99.90;;;;;;5079382;27;19923;-63
2024/01/12 03:49:49;;;;;;;;;;;1.20;99.90;;;;;;5083890;27;19923;-65
2024/01/12 03:52:14;;;;;;;;;;;1.20;99.90;;;;;;5079396;27;20566;-65
2024/01/12 03:54:40;;;;;;;;;;;1.20;99.90;;;;;;5097423;27;20509;-64
2024/01/12 03:57:05;;;;;;;;;;;1.20;99.90;;;;;;5083175;27;19931;-65
2024/01/12 03:59:31;;;;;;;;;;;1.40;99.90;;;;;;5055346;27;19934;-64
2024/01/12 04:01:57;;;;;;;;;;;1.30;99.90;;;;;;5082782;27;19923;-65
2024/01/12 04:04:23;;;;;;;;;;;1.30;99.90;;;;;;5083135;27;20255;-63
2024/01/12 04:06:48;;;;;;;;;;;1.40;99.90;;;;;;5081986;27;19981;-64
2024/01/12 04:09:15;;;;;;;;;;;1.40;99.90;;;;;;5075905;27;19997;-64
2024/01/12 04:11:41;;;;;;;;;;;1.50;99.90;;;;;;5088684;27;19943;-65
2024/01/12 04:14:06;;;;;;;;;;;1.50;99.90;;;;;;5079970;27;20369;-64
2024/01/12 04:16:32;;;;;;;;;;;1.40;99.90;;;;;;5078022;27;19940;-63
2024/01/12 04:18:58;;;;;;;;;;;1.50;99.90;;;;;;5081932;27;19936;-64
2024/01/12 04:21:23;;;;;;;;;;;1.50;99.90;;;;;;5103544;27;20018;-65
2024/01/12 04:23:49;;;;;;;;;;;1.50;99.90;;;;;;5075208;27;19931;-64
2024/01/12 04:26:14;;;;;;;;;;;1.60;99.90;;;;;;5081502;27;19923;-64
2024/01/12 04:28:40;;;;;;;;;;;1.50;99.90;;;;;;5082327;27;19994;-64
2024/01/12 04:31:06;;;;;;;;;;;1.50;99.90;;;;;;5084419;27;19932;-65
2024/01/12 04:33:33;;;;;;;;;;;1.50;99.90;;;;;;5089005;27;20278;-63
2024/01/12 04:35:59;;;;;;;;;;;1.50;99.90;;;;;;5085434;27;19976;-65
2024/01/12 04:38:25;;;;;;;;;;;1.50;99.90;;;;;;5072021;27;19927;-64
2024/01/12 04:40:51;;;;;;;;;;;1.50;99.90;;;;;;5089404;27;19962;-64
2024/01/12 04:43:16;;;;;;;;;;;1.50;99.90;;;;;;5074685;27;20352;-65
2024/01/12 04:45:42;;;;;;;;;;;1.50;99.90;;;;;;5084337;27;20237;-65
2024/01/12 04:48:07;;;;;;;;;;;1.50;99.90;;;;;;5102561;27;19938;-65
2024/01/12 04:50:33;;;;;;;;;;;1.50;99.90;;;;;;5084301;27;20400;-64
2024/01/12 04:52:58;;;;;;;;;;;1.50;99.90;;;;;;5066850;27;19927;-65
2024/01/12 04:55:24;;;;;;;;;;;1.50;99.90;;;;;;5080276;27;19946;-64
2024/01/12 04:57:50;;;;;;;;;;;1.50;99.90;;;;;;5082376;27;19919;-64
2024/01/12 05:00:16;;;;;;;;;;;1.50;99.90;;;;;;5105178;27;19929;-65
2024/01/12 05:02:42;;;;;;;;;;;1.40;99.90;;;;;;5106249;27;20001;-64
2024/01/12 05:05:10;;;;;;;;;;;1.40;99.90;;;;;;5091715;27;20377;-65
2024/01/12 05:07:36;;;;;;;;;;;1.40;99.90;;;;;;5089867;27;19923;-65
2024/01/12 05:10:05;;;;;;;;;;;1.40;99.90;;;;;;5080487;27;19935;-63
2024/01/12 05:12:31;;;;;;;;;;;1.40;99.90;;;;;;5080208;27;20006;-64
2024/01/12 05:14:56;;;;;;;;;;;1.40;99.90;;;;;;5066614;27;19923;-64
2024/01/12 05:17:22;;;;;;;;;;;1.40;99.90;;;;;;5081294;27;19930;-65
2024/01/12 05:19:48;;;;;;;;;;;1.40;99.90;;;;;;5078637;27;20495;-64
2024/01/12 05:22:14;;;;;;;;;;;1.40;99.90;;;;;;5073288;27;19984;-65
2024/01/12 05:24:40;;;;;;;;;;;1.40;99.90;;;;;;5079654;27;19954;-64
2024/01/12 05:27:05;;;;;;;;;;;1.40;99.90;;;;;;5081088;27;20290;-65
2024/01/12 05:29:31;;;;;;;;;;;1.40;99.90;;;;;;5081379;27;20043;-64
2024/01/12 05:31:56;;;;;;;;;;;1.40;99.90;;;;;;5092446;27;19936;-65
2024/01/12 05:34:22;;;;;;;;;;;1.30;99.90;;;;;;5095798;27;19924;-64
2024/01/12 05:36:48;;;;;;;;;;;1.40;99.90;;;;;;5069810;27;19982;-65
2024/01/12 05:39:15;;;;;;;;;;;1.40;99.90;;;;;;5076792;27;19934;-64
2024/01/12 05:41:40;;;;;;;;;;;1.30;99.90;;;;;;5077575;27;19976;-63
2024/01/12 05:44:06;;;;;;;;;;;1.40;99.90;;;;;;5092497;27;19923;-64
2024/01/12 05:46:32;;;;;;;;;;;1.40;99.90;;;;;;5065674;27;19934;-64
2024/01/12 05:49:00;;;;;;;;;;;1.40;99.90;;;;;;5059929;27;19935;-65
2024/01/12 05:51:26;;;;;;;;;;;1.40;99.90;;;;;;5067934;27;19932;-64
2024/01/12 05:53:51;;;;;;;;;;;1.40;99.90;;;;;;5090191;27;20522;-65
2024/01/12 05:56:17;;;;;;;;;;;1.40;99.90;;;;;;5070828;27;19927;-64
2024/01/12 05:58:42;;;;;;;;;;;1.40;99.90;;;;;;5077946;27;19930;-64
2024/01/12 06:01:08;;;;;;;;;;;1.40;99.90;;;;;;5060936;27;19928;-64
2024/01/12 06:03:34;;;;;;;;;;;1.40;99.90;;;;;;5093315;27;19927;-63
2024/01/12 06:06:00;;;;;;;;;;;1.40;99.90;;;;;;5066645;27;19972;-63
2024/01/12 06:08:25;;;;;;;;;;;1.40;99.90;;;;;;5070308;27;20734;-64
2024/01/12 06:10:51;;;;;;;;;;;1.40;99.90;;;;;;5090645;27;19932;-65
2024/01/12 06:13:16;;;;;;;;;;;1.40;99.90;;;;;;5082273;27;20026;-63
2024/01/12 06:15:42;;;;;;;;;;;1.50;99.90;;;;;;5057332;27;19968;-64
2024/01/12 06:18:08;;;;;;;;;;;1.40;99.90;;;;;;5074787;27;20039;-64
2024/01/12 06:20:34;;;;;;;;;;;1.40;99.90;;;;;;5075696;27;19928;-64
2024/01/12 06:22:59;;;;;;;;;;;1.40;99.90;;;;;;5077867;28;19923;-65
2024/01/12 06:25:25;;;;;;;;;;;1.40;99.90;;;;;;5089462;27;20021;-65
2024/01/12 06:27:50;;;;;;;;;;;1.50;99.90;;;;;;5070001;28;19923;-65
2024/01/12 06:30:16;;;;;;;;;;;1.50;99.90;;;;;;5054738;27;19988;-64
2024/01/12 06:32:42;;;;;;;;;;;1.50;99.90;;;;;;5071228;28;19923;-64
2024/01/12 06:35:09;;;;;;;;;;;1.50;99.90;;;;;;5086909;27;19948;-64
2024/01/12 06:37:34;;;;;;;;;;;1.50;99.90;;;;;;5056750;28;20020;-65
2024/01/12 06:40:00;;;;;;;;;;;1.60;99.90;;;;;;5089820;27;20006;-64
2024/01/12 06:42:27;;;;;;;;;;;1.60;99.90;;;;;;5109040;27;20259;-64
2024/01/12 06:44:52;;;;;;;;;;;1.60;99.90;;;;;;5080943;27;20321;-64
2024/01/12 06:47:18;;;;;;;;;;;1.60;99.90;;;;;;5085339;27;19967;-64
2024/01/12 06:49:45;;;;;;;;;;;1.60;99.90;;;;;;5072851;28;20330;-65
2024/01/12 06:52:11;;;;;;;;;;;1.60;99.90;;;;;;5080545;28;19923;-63
2024/01/12 06:54:36;;;;;;;;;;;1.60;99.90;;;;;;5072580;27;19928;-64
2024/01/12 06:57:02;;;;;;;;;;;1.60;99.90;;;;;;5083422;28;19930;-65
2024/01/12 06:59:28;;;;;;;;;;;1.60;99.90;;;;;;5072838;28;20006;-65
2024/01/12 07:01:53;;;;;;;;;;;1.70;99.90;;;;;;5086380;28;19966;-66
2024/01/12 07:04:19;;;;;;;;;;;1.60;99.90;;;;;;5081371;28;20028;-66
2024/01/12 07:06:45;;;;;;;;;;;1.70;99.90;;;;;;5090493;27;19924;-65
2024/01/12 07:09:14;;;;;;;;;;;1.70;99.90;;;;;;5085274;28;20613;-65
2024/01/12 07:11:43;;;;;;;;;;;1.70;99.90;;;;;;5096466;28;20393;-65
2024/01/12 07:14:09;;;;;;;;;;;1.70;99.90;;;;;;5088681;28;19919;-65
2024/01/12 07:16:34;;;;;;;;;;;1.70;99.90;;;;;;5086661;28;19934;-65
2024/01/12 07:19:00;;;;;;;;;;;1.80;99.90;;;;;;5076528;28;19971;-67
2024/01/12 07:21:26;;;;;;;;;;;1.80;99.90;;;;;;5070812;28;19924;-67
2024/01/12 07:23:51;;;;;;;;;;;1.80;99.90;;;;;;5067310;28;19930;-67
2024/01/12 07:26:17;;;;;;;;;;;1.80;99.90;;;;;;5072288;28;20417;-67
2024/01/12 07:28:42;;;;;;;;;;;1.80;99.90;;;;;;5064817;28;19927;-67
2024/01/12 07:31:08;;;;;;;;;;;1.80;99.90;;;;;;5066474;28;20002;-68
2024/01/12 07:33:33;;;;;;;;;;;1.90;99.90;;;;;;5084742;28;19931;-67
2024/01/12 07:35:59;;;;;;;;;;;1.90;99.90;;;;;;5068217;28;20360;-68
2024/01/12 07:38:25;;;;;;;;;;;1.90;99.90;;;;;;5068212;27;20554;-67
2024/01/12 07:40:50;;;;;;;;;;;2.00;99.90;;;;;;5040933;28;19934;-67
2024/01/12 07:43:16;;;;;;;;;;;2.00;99.90;;;;;;5090456;28;19970;-67
2024/01/12 07:45:41;;;;;;;;;;;2.00;99.90;;;;;;5100455;27;19928;-67
2024/01/12 07:48:10;;;;;;;;;;;2.10;99.90;;;;;;5070997;27;20348;-67
2024/01/12 07:50:36;;;;;;;;;;;2.10;99.90;;;;;;5068710;27;19927;-67
2024/01/12 07:53:01;;;;;;;;;;;2.10;99.90;;;;;;5048901;27;19924;-67
2024/01/12 07:55:27;;;;;;;;;;;2.10;99.90;;;;;;5088829;27;19927;-67
2024/01/12 07:57:53;;;;;;;;;;;2.20;99.90;;;;;;5066543;27;20554;-67
2024/01/12 08:00:19;;;;;;;;;;;2.20;99.90;;;;;;5081261;27;20206;-68
2024/01/12 08:02:44;;;;;;;;;;;2.20;99.90;;;;;;5083513;27;19927;-68
2024/01/12 08:05:10;;;;;;;;;;;2.20;99.90;;;;;;5102085;27;19964;-67
2024/01/12 08:07:36;;;;;;;;;;;2.30;99.90;;;;;;5088697;27;19976;-67
2024/01/12 08:10:02;;;;;;;;;;;2.20;99.90;;;;;;5066755;27;20481;-67
2024/01/12 08:12:28;;;;;;;;;;;2.30;99.90;;;;;;5078736;27;20387;-67
2024/01/12 08:14:53;;;;;;;;;;;2.30;99.90;;;;;;5070578;27;20364;-68
2024/01/12 08:17:19;;;;;;;;;;;2.30;99.90;;;;;;5079756;27;19919;-67
2024/01/12 08:19:44;;;;;;;;;;;2.40;99.90;;;;;;5086567;27;20410;-68
2024/01/12 08:22:10;;;;;;;;;;;2.40;99.90;;;;;;5075264;27;19935;-67
2024/01/12 08:24:36;;;;;;;;;;;2.40;99.90;;;;;;5077472;27;19927;-67
2024/01/12 08:27:02;;;;;;;;;;;2.40;99.90;;;;;;5051905;27;19970;-67
2024/01/12 08:29:27;;;;;;;;;;;2.40;99.90;;;;;;5080579;27;19931;-67
2024/01/12 08:31:53;;;;;;;;;;;2.40;99.90;;;;;;5075928;27;20022;-68
2024/01/12 08:34:19;;;;;;;;;;;2.40;99.90;;;;;;5068222;27;20377;-67
2024/01/12 08:36:44;;;;;;;;;;;2.40;99.90;;;;;;5085650;27;20000;-68
2024/01/12 08:39:10;;;;;;;;;;;2.40;99.90;;;;;;5082058;27;19924;-67
2024/01/12 08:41:36;;;;;;;;;;;2.40;99.90;;;;;;5074871;27;20694;-68
2024/01/12 08:44:04;;;;;;;;;;;2.50;99.90;;;;;;5090256;27;19927;-67
2024/01/12 08:46:30;;;;;;;;;;;2.50;99.90;;;;;;5085662;27;19932;-68
2024/01/12 08:48:55;;;;;;;;;;;2.50;99.90;;;;;;5073397;27;20049;-67
2024/01/12 08:51:23;;;;;;;;;;;2.50;99.90;;;;;;5086835;27;19934;-67
2024/01/12 08:53:49;;;;;;;;;;;2.60;99.90;;;;;;5071262;27;19963;-67
2024/01/12 08:56:14;;;;;;;;;;;2.60;99.90;;;;;;5084853;27;20097;-67
2024/01/12 08:58:40;;;;;;;;;;;2.50;99.90;;;;;;5085424;27;19930;-68
2024/01/12 09:01:05;;;;;;;;;;;2.60;99.90;;;;;;5078003;27;19924;-67
2024/01/12 09:03:31;;;;;;;;;;;2.60;99.90;;;;;;5077342;27;19924;-68
2024/01/12 09:05:57;;;;;;;;;;;2.60;99.90;;;;;;5063966;27;19974;-68
2024/01/12 09:08:22;;;;;;;;;;;2.60;99.90;;;;;;5067695;27;20485;-67
2024/01/12 09:10:48;;;;;;;;;;;2.70;99.90;;;;;;5065021;27;19942;-67
2024/01/12 09:13:14;;;;;;;;;;;2.70;99.90;;;;;;5082038;27;19923;-68
2024/01/12 09:15:39;;;;;;;;;;;2.70;99.90;;;;;;5077390;27;19966;-67
2024/01/12 09:18:06;;;;;;;;;;;2.70;99.90;;;;;;5064708;27;19939;-68
2024/01/12 09:20:35;;;;;;;;;;;2.70;99.90;;;;;;5087855;27;19923;-67
2024/01/12 09:23:01;;;;;;;;;;;2.80;99.90;;;;;;5066975;27;19923;-67
2024/01/12 09:25:26;;;;;;;;;;;2.70;99.90;;;;;;5069738;27;20279;-68
2024/01/12 09:27:52;;;;;;;;;;;2.80;99.90;;;;;;5054924;27;20294;-67
2024/01/12 09:30:21;;;;;;;;;;;2.70;99.90;;;;;;5077241;27;19927;-67
2024/01/12 09:32:47;;;;;;;;;;;2.80;99.90;;;;;;5081298;27;19942;-68
2024/01/12 09:35:12;;;;;;;;;;;2.90;99.90;;;;;;5077180;27;20337;-68
2024/01/12 09:37:38;;;;;;;;;;;2.90;99.90;;;;;;5070722;27;19920;-68
2024/01/12 09:40:04;;;;;;;;;;;3.00;99.90;;;;;;5086622;27;19923;-67
2024/01/12 09:42:32;;;;;;;;;;;3.00;99.90;;;;;;5066428;27;20451;-67
2024/01/12 09:44:59;;;;;;;;;;;3.00;99.90;;;;;;5083337;27;19928;-67
2024/01/12 09:47:25;;;;;;;;;;;3.00;99.90;;;;;;5092524;27;20430;-67
2024/01/12 09:49:52;;;;;;;;;;;3.00;99.90;;;;;;5077595;27;20011;-68
2024/01/12 09:52:18;;;;;;;;;;;3.10;99.90;;;;;;5080488;27;19931;-68
2024/01/12 09:54:44;;;;;;;;;;;3.10;99.90;;;;;;5061262;27;19923;-68
2024/01/12 09:57:11;;;;;;;;;;;3.10;99.90;;;;;;5070892;27;19954;-68
2024/01/12 09:59:38;;;;;;;;;;;3.10;99.90;;;;;;5079936;27;19927;-68
2024/01/12 10:02:04;;;;;;;;;;;3.10;99.90;;;;;;5083085;27;20002;-68
2024/01/12 10:04:30;;;;;;;;;;;3.10;99.90;;;;;;5079910;27;19975;-68
2024/01/12 10:06:55;;;;;;;;;;;3.20;99.90;;;;;;5082114;27;19940;-68
2024/01/12 10:09:24;;;;;;;;;;;3.20;99.90;;;;;;5075123;27;19924;-68
2024/01/12 10:11:53;;;;;;;;;;;3.20;99.90;;;;;;5077216;27;20917;-68
2024/01/12 10:14:20;;;;;;;;;;;3.30;99.90;;;;;;5069463;27;20499;-68
2024/01/12 10:16:55;;;;;;;;;;;3.30;99.90;;;;;;5066291;28;19926;-68
2024/01/12 10:19:21;;;;;;;;;;;3.30;99.90;;;;;;5083350;27;19928;-68
2024/01/12 10:21:47;;;;;;;;;;;3.30;99.90;;;;;;5064834;27;20676;-68
2024/01/12 10:24:15;;;;;;;;;;;3.40;99.90;;;;;;5065539;27;20346;-68
2024/01/12 10:26:41;;;;;;;;;;;3.40;99.90;;;;;;5083426;27;20445;-68
2024/01/12 10:29:07;;;;;;;;;;;3.40;99.90;;;;;;5082474;27;20349;-68
2024/01/12 10:31:37;;;;;;;;;;;3.40;99.90;;;;;;5079703;28;19934;-68
2024/01/12 10:34:03;;;;;;;;;;;3.40;99.90;;;;;;5063789;28;19927;-68
2024/01/12 10:36:30;;;;;;;;;;;3.50;99.90;;;;;;5077169;27;20476;-68
2024/01/12 10:38:59;;;;;;;;;;;3.50;99.90;;;;;;5079534;28;20544;-68
2024/01/12 10:41:25;;;;;;;;;;;3.60;99.90;;;;;;5068434;28;19924;-67
2024/01/12 10:43:52;;;;;;;;;;;3.60;99.90;;;;;;5067507;28;19923;-68
2024/01/12 10:46:24;;;;;;;;;;;3.60;99.90;;;;;;5081188;28;19942;-68
2024/01/12 10:49:16;;;;;;;;;;;3.60;99.90;;;;;;5085564;28;20385;-68
2024/01/12 10:51:46;;;;;;;;;;;3.70;99.90;;;;;;5082318;28;19928;-68
2024/01/12 10:54:32;;;;;;;;;;;3.70;99.90;;;;;;5068726;27;20516;-68
2024/01/12 10:56:58;;;;;;;;;;;3.70;99.90;;;;;;5084563;28;19936;-68
2024/01/12 10:59:25;;;;;;;;;;;3.80;99.90;;;;;;5081023;28;20374;-68
2024/01/12 11:01:52;;;;;;;;;;;3.80;99.90;;;;;;5082363;28;19983;-68
2024/01/12 11:04:17;;;;;;;;;;;3.80;99.90;;;;;;5066052;27;19969;-68
2024/01/12 11:06:45;;;;;;;;;;;3.80;99.90;;;;;;5062542;28;20613;-68
2024/01/12 11:09:12;;;;;;;;;;;3.80;99.90;;;;;;5082766;28;20000;-68
2024/01/12 11:11:47;;;;;;;;;;;3.90;99.90;;;;;;5075132;27;20432;-68
2024/01/12 11:14:14;;;;;;;;;;;3.80;99.90;;;;;;5107260;27;19970;-68
2024/01/12 11:16:39;;;;;;;;;;;3.90;99.90;;;;;;5083636;28;19927;-68
2024/01/12 11:19:11;;;;;;;;;;;3.90;99.90;;;;;;5076308;28;19927;-68
2024/01/12 11:21:40;;;;;;;;;;;3.90;99.90;;;;;;5084667;28;20582;-68
2024/01/12 11:24:06;;;;;;;;;;;3.90;99.90;;;;;;5075482;27;19923;-68
2024/01/12 11:26:32;;;;;;;;;;;3.90;99.90;;;;;;5078619;27;19924;-69
2024/01/12 11:28:58;;;;;;;;;;;3.90;99.90;;;;;;5089907;27;19928;-68
2024/01/12 11:31:25;;;;;;;;;;;4.00;99.90;;;;;;5082192;27;19978;-68
2024/01/12 11:33:53;;;;;;;;;;;3.90;99.90;;;;;;5090017;27;19927;-68
2024/01/12 11:36:25;;;;;;;;;;;4.00;99.90;;;;;;5074148;27;20381;-68
2024/01/12 11:38:55;;;;;;;;;;;4.00;99.90;;;;;;5087035;27;20397;-68
2024/01/12 11:41:25;;;;;;;;;;;4.10;99.90;;;;;;5087193;27;19927;-68
2024/01/12 11:43:51;;;;;;;;;;;4.10;99.90;;;;;;5084853;27;23294;-68
2024/01/12 11:46:17;;;;;;;;;;;4.20;99.90;;;;;;5082305;27;19935;-69
2024/01/12 11:48:44;;;;;;;;;;;4.10;99.90;;;;;;5074132;27;20421;-69
2024/01/12 11:51:09;;;;;;;;;;;4.10;99.90;;;;;;5072015;27;19928;-68
2024/01/12 11:53:38;;;;;;;;;;;4.20;99.90;;;;;;5080099;27;19930;-68
2024/01/12 11:56:04;;;;;;;;;;;4.10;99.90;;;;;;5087078;27;19931;-68
2024/01/12 11:58:31;;;;;;;;;;;4.20;99.90;;;;;;5084331;27;20337;-69
2024/01/12 12:00:56;;;;;;;;;;;4.20;99.90;;;;;;5079545;27;20393;-68
2024/01/12 12:03:22;;;;;;;;;;;4.20;99.90;;;;;;5076382;27;20334;-68
2024/01/12 12:05:48;;;;;;;;;;;4.20;99.90;;;;;;5079365;27;19927;-69
2024/01/12 12:08:13;;;;;;;;;;;4.20;99.90;;;;;;5079774;27;20062;-68
2024/01/12 12:10:39;;;;;;;;;;;4.20;99.90;;;;;;5059410;27;20022;-68
2024/01/12 12:13:08;;;;;;;;;;;4.20;99.90;;;;;;5066609;27;19963;-68
2024/01/12 12:15:34;;;;;;;;;;;4.30;99.90;;;;;;5063354;27;19936;-69
2024/01/12 12:18:00;;;;;;;;;;;4.30;99.90;;;;;;5077779;27;19927;-69
2024/01/12 12:20:26;;;;;;;;;;;4.30;99.90;;;;;;5068310;27;19930;-68
2024/01/12 12:22:53;;;;;;;;;;;4.30;99.90;;;;;;5082217;27;20440;-68
2024/01/12 12:25:18;;;;;;;;;;;4.40;99.90;;;;;;5070177;27;20562;-68
2024/01/12 12:27:45;;;;;;;;;;;4.40;99.90;;;;;;5084429;27;19930;-69
2024/01/12 12:30:12;;;;;;;;;;;4.40;99.90;;;;;;5077128;27;20389;-69
2024/01/12 12:32:38;;;;;;;;;;;4.50;99.90;;;;;;5084447;27;20175;-68
2024/01/12 12:35:13;;;;;;;;;;;4.50;99.90;;;;;;5079618;27;20516;-68
2024/01/12 12:37:39;;;;;;;;;;;4.50;99.90;;;;;;5083368;27;20370;-69
2024/01/12 12:40:07;;;;;;;;;;;4.40;99.90;;;;;;5077348;27;20402;-69
2024/01/12 12:42:33;;;;;;;;;;;4.50;99.90;;;;;;5077143;27;19928;-65
2024/01/12 12:44:58;;;;;;;;;;;4.40;99.90;;;;;;5070274;27;19927;-64
2024/01/12 12:47:24;;;;;;;;;;;4.50;99.90;;;;;;5066507;27;19985;-65
2024/01/12 12:49:50;;;;;;;;;;;4.50;99.90;;;;;;5099123;27;20672;-65
2024/01/12 12:52:16;;;;;;;;;;;4.50;99.90;;;;;;5078716;27;19927;-64
2024/01/12 12:54:42;;;;;;;;;;;4.40;99.90;;;;;;5088647;27;20392;-64
2024/01/12 12:57:07;;;;;;;;;;;4.40;99.90;;;;;;5073588;27;20010;-64
2024/01/12 12:59:35;;;;;;;;;;;4.40;99.90;;;;;;5084026;27;19984;-64
2024/01/12 13:02:00;;;;;;;;;;;4.40;99.90;;;;;;5106871;27;19924;-64
2024/01/12 13:04:26;;;;;;;;;;;4.50;99.90;;;;;;5104307;27;19985;-64
2024/01/12 13:06:52;;;;;;;;;;;4.40;99.90;;;;;;5069825;27;19927;-65
2024/01/12 13:09:17;;;;;;;;;;;4.40;99.90;;;;;;5073109;27;19930;-64
2024/01/12 13:11:43;;;;;;;;;;;4.40;99.90;;;;;;5080986;27;20044;-64
2024/01/12 13:14:09;;;;;;;;;;;4.40;99.90;;;;;;5092536;27;19924;-64
2024/01/12 13:16:38;;;;;;;;;;;4.40;99.90;;;;;;5071423;27;19924;-64
2024/01/12 13:19:04;;;;;;;;;;;4.40;99.90;;;;;;5070843;27;19927;-65
2024/01/12 13:21:30;;;;;;;;;;;4.30;99.90;;;;;;5082198;27;19923;-64
2024/01/12 13:23:57;;;;;;;;;;;4.40;99.90;;;;;;5071900;27;20009;-64
2024/01/12 13:26:23;;;;;;;;;;;4.40;99.90;;;;;;5069301;27;19924;-64
2024/01/12 13:28:49;;;;;;;;;;;4.30;99.90;;;;;;5070051;27;20366;-64
2024/01/12 13:31:15;;;;;;;;;;;4.30;99.90;;;;;;5070306;27;19931;-64
2024/01/12 13:33:40;;;;;;;;;;;4.30;99.90;;;;;;5069890;27;20510;-64
2024/01/12 13:36:06;;;;;;;;;;;4.20;99.90;;;;;;5066650;27;19972;-64
2024/01/12 13:38:32;;;;;;;;;;;4.30;99.90;;;;;;5076090;27;19924;-64
2024/01/12 13:40:58;;;;;;;;;;;4.30;99.90;;;;;;5063686;27;19920;-64
2024/01/12 13:43:24;;;;;;;;;;;4.30;99.90;;;;;;5082502;27;20267;-64
2024/01/12 13:45:50;;;;;;;;;;;4.30;99.90;;;;;;5057046;27;20396;-64
2024/01/12 13:48:16;;;;;;;;;;;4.30;99.90;;;;;;5080225;27;20290;-65
2024/01/12 13:50:42;;;;;;;;;;;4.30;99.90;;;;;;5086796;27;20205;-65
2024/01/12 13:53:07;;;;;;;;;;;4.30;99.90;;;;;;5085504;27;20382;-64
2024/01/12 13:55:33;;;;;;;;;;;4.30;99.90;;;;;;5071233;27;19928;-65
2024/01/12 13:57:58;;;;;;;;;;;4.30;99.90;;;;;;5095352;27;19992;-64
2024/01/12 14:00:24;;;;;;;;;;;4.30;99.90;;;;;;5073296;27;19927;-65
2024/01/12 14:02:50;;;;;;;;;;;4.30;99.90;;;;;;5098801;27;19924;-64
2024/01/12 14:05:15;;;;;;;;;;;4.30;99.90;;;;;;5077684;27;20378;-64
2024/01/12 14:07:42;;;;;;;;;;;4.30;99.90;;;;;;5097712;27;19932;-64
2024/01/12 14:10:08;;;;;;;;;;;4.30;99.90;;;;;;5075844;27;19927;-64
2024/01/12 14:12:34;;;;;;;;;;;4.30;99.90;;;;;;5076839;27;19986;-65
2024/01/12 14:14:59;;;;;;;;;;;4.30;99.90;;;;;;5095016;27;20657;-64
2024/01/12 14:17:25;;;;;;;;;;;4.30;99.90;;;;;;5064267;27;19931;-64
2024/01/12 14:19:51;;;;;;;;;;;4.30;99.90;;;;;;5077488;28;19920;-64
2024/01/12 14:22:16;;;;;;;;;;;4.30;99.90;;;;;;5054615;27;21814;-64
2024/01/12 14:24:43;;;;;;;;;;;4.30;99.90;;;;;;5068553;27;28891;-64